createdAt,value
2019-01-16T00:00:59.537Z,1012.24
2019-01-16T00:01:59.489Z,1012.28
2019-01-16T00:02:59.470Z,1012.27
2019-01-16T00:03:59.483Z,1012.25
2019-01-16T00:04:59.445Z,1012.30
2019-01-16T00:05:59.437Z,1012.32
2019-01-16T00:06:59.434Z,1012.29
2019-01-16T00:07:59.420Z,1012.30
2019-01-16T00:08:59.468Z,1012.31
2019-01-16T00:09:59.395Z,1012.26
2019-01-16T00:10:59.383Z,1012.25
2019-01-16T00:11:59.380Z,1012.24
2019-01-16T00:12:59.373Z,1012.20
2019-01-16T00:13:59.350Z,1012.22
2019-01-16T00:14:59.381Z,1012.23
2019-01-16T00:15:59.370Z,1012.26
2019-01-16T00:16:59.327Z,1012.30
2019-01-16T00:17:59.362Z,1012.27
2019-01-16T00:18:59.301Z,1012.26
2019-01-16T00:19:59.315Z,1012.30
2019-01-16T00:20:59.287Z,1012.32
2019-01-16T00:21:59.270Z,1012.24
2019-01-16T00:22:59.261Z,1012.19
2019-01-16T00:23:59.246Z,1012.21
2019-01-16T00:24:59.273Z,1012.20
2019-01-16T00:25:59.236Z,1012.23
2019-01-16T00:26:59.240Z,1012.19
2019-01-16T00:27:59.207Z,1012.19
2019-01-16T00:28:59.209Z,1012.19
2019-01-16T00:29:59.215Z,1012.15
2019-01-16T00:30:59.180Z,1012.14
2019-01-16T00:31:59.174Z,1012.19
2019-01-16T00:32:59.196Z,1012.20
2019-01-16T00:33:59.176Z,1012.15
2019-01-16T00:34:59.134Z,1012.14
2019-01-16T00:35:59.147Z,1012.11
2019-01-16T00:36:59.111Z,1012.12
2019-01-16T00:37:59.141Z,1012.06
2019-01-16T00:38:59.093Z,1012.09
2019-01-16T00:39:59.100Z,1012.14
2019-01-16T00:40:59.090Z,1012.07
2019-01-16T00:41:59.070Z,1012.11
2019-01-16T00:42:59.054Z,1012.08
2019-01-16T00:43:59.040Z,1012.06
2019-01-16T00:44:59.029Z,1012.02
2019-01-16T00:45:59.043Z,1012.05
2019-01-16T00:46:59.014Z,1012.03
2019-01-16T00:47:59.002Z,1012.04
2019-01-16T00:48:58.993Z,1012.03
2019-01-16T00:49:58.979Z,1012.00
2019-01-16T00:50:58.986Z,1011.97
2019-01-16T00:51:58.960Z,1012.02
2019-01-16T00:52:58.952Z,1011.96
2019-01-16T00:53:58.936Z,1011.96
2019-01-16T00:54:58.947Z,1011.96
2019-01-16T00:55:58.980Z,1011.92
2019-01-16T00:56:58.910Z,1011.97
2019-01-16T00:57:58.915Z,1012.00
2019-01-16T00:58:58.937Z,1011.95
2019-01-16T00:59:58.891Z,1011.94
2019-01-16T01:00:58.871Z,1011.90
2019-01-16T01:01:58.883Z,1011.76
2019-01-16T01:02:58.846Z,1011.88
2019-01-16T01:03:58.833Z,1011.85
2019-01-16T01:04:58.824Z,1011.81
2019-01-16T01:05:58.828Z,1011.83
2019-01-16T01:06:58.840Z,1011.78
2019-01-16T01:07:58.837Z,1011.82
2019-01-16T01:08:58.783Z,1011.86
2019-01-16T01:09:58.767Z,1011.85
2019-01-16T01:10:58.759Z,1011.73
2019-01-16T01:11:58.770Z,1011.80
2019-01-16T01:12:58.739Z,1011.82
2019-01-16T01:13:58.727Z,1011.81
2019-01-16T01:14:58.717Z,1011.77
2019-01-16T01:15:58.725Z,1011.80
2019-01-16T01:16:58.720Z,1011.77
2019-01-16T01:17:58.721Z,1011.80
2019-01-16T01:18:58.680Z,1011.85
2019-01-16T01:19:58.664Z,1011.80
2019-01-16T01:20:58.660Z,1011.81
2019-01-16T01:21:58.675Z,1011.79
2019-01-16T01:22:58.655Z,1011.90
2019-01-16T01:23:58.629Z,1011.77
2019-01-16T01:24:58.620Z,1011.88
2019-01-16T01:25:58.613Z,1011.75
2019-01-16T01:26:58.618Z,1011.79
2019-01-16T01:27:58.586Z,1011.77
2019-01-16T01:28:58.614Z,1011.81
2019-01-16T01:29:58.563Z,1011.78
2019-01-16T01:30:58.587Z,1011.85
2019-01-16T01:31:58.565Z,1011.85
2019-01-16T01:32:58.533Z,1011.86
2019-01-16T01:33:58.520Z,1011.80
2019-01-16T01:34:58.506Z,1011.77
2019-01-16T01:35:58.502Z,1011.77
2019-01-16T01:36:58.496Z,1011.79
2019-01-16T01:37:58.527Z,1011.81
2019-01-16T01:38:58.477Z,1011.81
2019-01-16T01:39:58.456Z,1011.83
2019-01-16T01:40:58.445Z,1011.80
2019-01-16T01:41:58.468Z,1011.85
2019-01-16T01:42:58.455Z,1011.83
2019-01-16T01:43:58.417Z,1011.84
2019-01-16T01:44:58.405Z,1011.83
2019-01-16T01:45:58.397Z,1011.83
2019-01-16T01:46:58.385Z,1011.82
2019-01-16T01:47:58.372Z,1011.79
2019-01-16T01:48:58.390Z,1011.78
2019-01-16T01:49:58.358Z,1011.81
2019-01-16T01:50:58.346Z,1011.79
2019-01-16T01:51:58.351Z,1011.82
2019-01-16T01:52:58.344Z,1011.82
2019-01-16T01:53:58.335Z,1011.73
2019-01-16T01:54:58.298Z,1011.82
2019-01-16T01:55:58.326Z,1011.77
2019-01-16T01:56:58.282Z,1011.82
2019-01-16T01:57:58.284Z,1011.79
2019-01-16T01:58:58.319Z,1011.78
2019-01-16T01:59:58.249Z,1011.71
2019-01-16T02:00:58.288Z,1011.86
2019-01-16T02:01:58.224Z,1011.77
2019-01-16T02:02:58.240Z,1011.74
2019-01-16T02:03:58.230Z,1011.76
2019-01-16T02:04:58.198Z,1011.76
2019-01-16T02:05:58.194Z,1011.72
2019-01-16T02:06:58.185Z,1011.77
2019-01-16T02:07:58.187Z,1011.76
2019-01-16T02:08:58.206Z,1011.71
2019-01-16T02:09:58.151Z,1011.66
2019-01-16T02:10:58.146Z,1011.70
2019-01-16T02:11:58.150Z,1011.66
2019-01-16T02:12:58.105Z,1011.67
2019-01-16T02:13:58.097Z,1011.64
2019-01-16T02:14:58.124Z,1011.63
2019-01-16T02:15:58.089Z,1011.72
2019-01-16T02:16:58.066Z,1011.61
2019-01-16T02:17:58.058Z,1011.66
2019-01-16T02:18:58.062Z,1011.70
2019-01-16T02:19:58.030Z,1011.71
2019-01-16T02:20:58.068Z,1011.72
2019-01-16T02:21:58.013Z,1011.68
2019-01-16T02:22:58.004Z,1011.74
2019-01-16T02:23:58.014Z,1011.65
2019-01-16T02:24:57.984Z,1011.61
2019-01-16T02:25:57.996Z,1011.59
2019-01-16T02:26:57.960Z,1011.56
2019-01-16T02:27:57.951Z,1011.55
2019-01-16T02:28:57.985Z,1011.55
2019-01-16T02:29:57.977Z,1011.53
2019-01-16T02:30:57.920Z,1011.57
2019-01-16T02:31:57.906Z,1011.52
2019-01-16T02:32:57.897Z,1011.47
2019-01-16T02:33:57.888Z,1011.50
2019-01-16T02:34:58.849Z,1011.43
2019-01-16T02:35:57.867Z,1011.41
2019-01-16T02:36:57.857Z,1011.37
2019-01-16T02:37:57.846Z,1011.40
2019-01-16T02:38:57.860Z,1011.35
2019-01-16T02:39:57.839Z,1011.37
2019-01-16T02:40:57.838Z,1011.35
2019-01-16T02:41:57.801Z,1011.46
2019-01-16T02:42:57.790Z,1011.39
2019-01-16T02:43:57.782Z,1011.38
2019-01-16T02:44:57.782Z,1011.38
2019-01-16T02:45:57.789Z,1011.40
2019-01-16T02:46:57.752Z,1011.35
2019-01-16T02:47:57.740Z,1011.27
2019-01-16T02:48:57.734Z,1011.27
2019-01-16T02:49:57.731Z,1011.30
2019-01-16T02:50:57.726Z,1011.35
2019-01-16T02:51:57.693Z,1011.29
2019-01-16T02:52:57.693Z,1011.29
2019-01-16T02:53:57.693Z,1011.25
2019-01-16T02:54:57.666Z,1011.30
2019-01-16T02:55:57.858Z,1011.27
2019-01-16T02:56:57.804Z,1011.17
2019-01-16T03:01:38.175Z,1011.12
2019-01-16T03:02:38.139Z,1011.12
2019-01-16T03:03:38.213Z,1011.09
2019-01-16T03:04:38.066Z,1011.04
2019-01-16T03:05:38.063Z,1011.02
2019-01-16T03:06:38.061Z,1011.04
2019-01-16T03:07:38.022Z,1011.00
2019-01-16T03:08:38.011Z,1011.02
2019-01-16T03:09:38.006Z,1010.96
2019-01-16T03:10:37.993Z,1010.98
2019-01-16T03:11:38.011Z,1010.97
2019-01-16T03:12:37.988Z,1010.91
2019-01-16T03:13:38.064Z,1010.90
2019-01-16T03:14:37.954Z,1010.91
2019-01-16T03:15:37.935Z,1010.90
2019-01-16T03:16:37.925Z,1010.90
2019-01-16T03:17:37.955Z,1010.86
2019-01-16T03:18:37.908Z,1010.92
2019-01-16T03:19:37.900Z,1010.89
2019-01-16T03:20:37.885Z,1010.87
2019-01-16T03:21:37.870Z,1010.91
2019-01-16T03:22:37.930Z,1010.90
2019-01-16T03:23:37.852Z,1010.87
2019-01-16T03:24:37.856Z,1010.87
2019-01-16T03:25:37.835Z,1010.87
2019-01-16T03:26:37.840Z,1010.85
2019-01-16T03:27:37.826Z,1010.79
2019-01-16T03:28:37.801Z,1010.84
2019-01-16T03:29:37.787Z,1010.82
2019-01-16T03:30:37.774Z,1010.82
2019-01-16T03:31:37.768Z,1010.82
2019-01-16T03:32:37.773Z,1010.80
2019-01-16T03:33:37.745Z,1010.76
2019-01-16T03:34:37.742Z,1010.80
2019-01-16T03:35:37.720Z,1010.79
2019-01-16T03:36:37.725Z,1010.75
2019-01-16T03:37:37.723Z,1010.70
2019-01-16T03:38:37.690Z,1010.71
2019-01-16T03:39:37.683Z,1010.72
2019-01-16T03:40:37.691Z,1010.67
2019-01-16T03:41:37.657Z,1010.70
2019-01-16T03:42:37.672Z,1010.65
2019-01-16T03:43:37.637Z,1010.62
2019-01-16T03:44:37.621Z,1010.63
2019-01-16T03:45:37.628Z,1010.62
2019-01-16T03:46:37.609Z,1010.66
2019-01-16T03:47:37.589Z,1010.58
2019-01-16T03:48:37.606Z,1010.59
2019-01-16T03:49:37.578Z,1010.62
2019-01-16T03:50:37.559Z,1010.56
2019-01-16T03:51:37.553Z,1010.58
2019-01-16T03:52:37.536Z,1010.54
2019-01-16T03:53:37.546Z,1010.57
2019-01-16T03:54:37.531Z,1010.49
2019-01-16T03:55:37.516Z,1010.47
2019-01-16T03:56:37.497Z,1010.47
2019-01-16T03:57:37.491Z,1010.45
2019-01-16T03:58:37.513Z,1010.40
2019-01-16T03:59:37.464Z,1010.37
2019-01-16T04:00:37.453Z,1010.39
2019-01-16T04:01:37.449Z,1010.44
2019-01-16T04:02:37.436Z,1010.38
2019-01-16T04:03:37.454Z,1010.34
2019-01-16T04:04:37.416Z,1010.36
2019-01-16T04:05:37.410Z,1010.34
2019-01-16T04:06:37.455Z,1010.33
2019-01-16T04:07:37.394Z,1010.29
2019-01-16T04:08:37.405Z,1010.29
2019-01-16T04:09:37.359Z,1010.28
2019-01-16T04:10:37.348Z,1010.23
2019-01-16T04:11:37.357Z,1010.25
2019-01-16T04:12:37.331Z,1010.20
2019-01-16T04:13:37.321Z,1010.23
2019-01-16T04:14:37.329Z,1010.18
2019-01-16T04:15:37.296Z,1010.17
2019-01-16T04:16:37.287Z,1010.20
2019-01-16T04:17:37.283Z,1010.18
2019-01-16T04:18:37.266Z,1010.13
2019-01-16T04:19:37.273Z,1010.15
2019-01-16T04:20:37.245Z,1010.13
2019-01-16T04:21:37.233Z,1010.03
2019-01-16T04:22:37.241Z,1010.10
2019-01-16T04:23:37.216Z,1010.05
2019-01-16T04:24:37.222Z,1010.00
2019-01-16T04:25:37.225Z,1010.03
2019-01-16T04:26:37.189Z,1010.00
2019-01-16T04:27:37.174Z,1010.01
2019-01-16T04:28:37.158Z,1010.00
2019-01-16T04:29:37.173Z,1009.98
2019-01-16T04:30:37.137Z,1009.97
2019-01-16T04:31:37.125Z,1009.91
2019-01-16T04:32:37.145Z,1009.89
2019-01-16T04:33:37.102Z,1009.90
2019-01-16T04:34:37.119Z,1009.86
2019-01-16T04:35:37.083Z,1009.88
2019-01-16T04:36:37.073Z,1009.84
2019-01-16T04:37:37.102Z,1009.85
2019-01-16T04:38:37.049Z,1009.81
2019-01-16T04:39:37.046Z,1009.75
2019-01-16T04:40:37.048Z,1009.75
2019-01-16T04:41:37.042Z,1009.80
2019-01-16T04:42:37.016Z,1009.76
2019-01-16T04:43:37.007Z,1009.73
2019-01-16T04:44:36.993Z,1009.76
2019-01-16T04:45:37.901Z,1009.69
2019-01-16T04:46:36.978Z,1009.78
2019-01-16T04:47:36.957Z,1009.77
2019-01-16T04:48:36.949Z,1009.77
2019-01-16T04:49:36.959Z,1009.74
2019-01-16T04:50:36.922Z,1009.72
2019-01-16T04:51:36.924Z,1009.66
2019-01-16T04:52:36.904Z,1009.63
2019-01-16T04:53:36.891Z,1009.65
2019-01-16T04:54:36.909Z,1009.67
2019-01-16T04:55:36.879Z,1009.63
2019-01-16T04:56:36.861Z,1009.63
2019-01-16T04:57:36.858Z,1009.63
2019-01-16T04:58:36.844Z,1009.63
2019-01-16T04:59:36.829Z,1009.65
2019-01-16T05:00:36.882Z,1009.57
2019-01-16T05:01:36.833Z,1009.56
2019-01-16T05:02:36.797Z,1009.56
2019-01-16T05:03:36.787Z,1009.53
2019-01-16T05:04:36.780Z,1009.52
2019-01-16T05:05:36.797Z,1009.48
2019-01-16T05:06:36.756Z,1009.47
2019-01-16T05:07:36.743Z,1009.57
2019-01-16T05:08:36.730Z,1009.58
2019-01-16T05:09:36.785Z,1009.50
2019-01-16T05:10:36.720Z,1009.48
2019-01-16T05:11:36.708Z,1009.58
2019-01-16T05:12:36.699Z,1009.54
2019-01-16T05:13:36.685Z,1009.55
2019-01-16T05:14:36.674Z,1009.53
2019-01-16T05:15:36.682Z,1009.52
2019-01-16T05:16:36.651Z,1009.49
2019-01-16T05:17:36.637Z,1009.47
2019-01-16T05:18:36.640Z,1009.49
2019-01-16T05:19:38.677Z,1009.48
2019-01-16T05:20:36.630Z,1009.38
2019-01-16T05:21:36.598Z,1009.41
2019-01-16T05:22:36.585Z,1009.44
2019-01-16T05:23:36.588Z,1009.46
2019-01-16T05:24:36.574Z,1009.43
2019-01-16T05:25:36.578Z,1009.37
2019-01-16T05:26:36.543Z,1009.44
2019-01-16T05:27:36.529Z,1009.43
2019-01-16T05:28:36.542Z,1009.39
2019-01-16T05:29:36.511Z,1009.41
2019-01-16T05:30:36.532Z,1009.50
2019-01-16T05:31:44.115Z,1009.44
2019-01-16T05:32:36.539Z,1009.40
2019-01-16T05:33:36.577Z,1009.36
2019-01-16T05:34:36.485Z,1009.32
2019-01-16T05:35:36.465Z,1009.32
2019-01-16T05:36:36.459Z,1009.35
2019-01-16T05:37:36.430Z,1009.32
2019-01-16T05:38:36.419Z,1009.28
2019-01-16T05:39:36.407Z,1009.23
2019-01-16T05:40:36.396Z,1009.21
2019-01-16T05:41:36.425Z,1009.21
2019-01-16T05:42:36.377Z,1009.16
2019-01-16T05:43:36.369Z,1009.20
2019-01-16T05:44:36.352Z,1009.21
2019-01-16T05:45:36.341Z,1009.18
2019-01-16T05:46:36.359Z,1009.21
2019-01-16T05:47:36.325Z,1009.17
2019-01-16T05:48:36.316Z,1009.20
2019-01-16T05:49:36.299Z,1009.21
2019-01-16T05:50:36.290Z,1009.15
2019-01-16T05:51:36.309Z,1009.17
2019-01-16T05:52:36.294Z,1009.15
2019-01-16T05:53:36.257Z,1009.17
2019-01-16T05:54:36.248Z,1009.10
2019-01-16T05:55:36.233Z,1009.12
2019-01-16T05:56:36.345Z,1009.08
2019-01-16T05:59:07.768Z,1009.03
2019-01-16T06:00:07.653Z,1009.02
2019-01-16T06:02:17.494Z,1009.04
2019-01-16T06:03:25.170Z,1009.07
2019-01-16T06:04:17.431Z,1009.11
2019-01-16T06:05:24.964Z,1009.11
2019-01-16T06:06:17.429Z,1009.14
2019-01-16T06:08:33.135Z,1009.11
2019-01-16T06:09:40.662Z,1009.08
2019-01-16T06:10:33.055Z,1009.05
2019-01-16T06:11:40.723Z,1008.96
2019-01-16T06:12:33.034Z,1008.97
2019-01-16T06:13:40.681Z,1008.95
2019-01-16T06:14:32.994Z,1008.92
2019-01-16T06:15:40.558Z,1008.97
2019-01-16T06:16:33.025Z,1008.95
2019-01-16T06:17:40.536Z,1008.95
2019-01-16T06:18:32.970Z,1008.95
2019-01-16T06:19:41.543Z,1008.98
2019-01-16T06:20:32.983Z,1008.91
2019-01-16T06:21:40.510Z,1008.90
2019-01-16T06:22:32.899Z,1008.95
2019-01-16T06:23:40.500Z,1008.86
2019-01-16T06:24:32.901Z,1008.93
2019-01-16T06:26:42.699Z,1008.92
2019-01-16T06:27:51.346Z,1008.89
2019-01-16T06:28:42.641Z,1008.94
2019-01-16T06:30:52.399Z,1008.87
2019-01-16T06:31:59.906Z,1008.90
2019-01-16T06:32:52.337Z,1008.92
2019-01-16T06:33:59.940Z,1008.94
2019-01-16T06:34:52.357Z,1008.92
2019-01-16T06:36:00.885Z,1008.86
2019-01-16T06:36:52.270Z,1008.87
2019-01-16T06:37:52.328Z,1008.87
2019-01-16T06:38:52.255Z,1008.85
2019-01-16T06:39:52.185Z,1008.95
2019-01-16T06:40:52.168Z,1008.90
2019-01-16T06:41:52.155Z,1008.95
2019-01-16T06:42:52.143Z,1008.95
2019-01-16T06:43:52.132Z,1008.91
2019-01-16T06:44:52.144Z,1008.87
2019-01-16T06:45:52.125Z,1008.88
2019-01-16T06:46:52.107Z,1008.87
2019-01-16T06:47:52.092Z,1008.88
2019-01-16T06:48:52.080Z,1008.90
2019-01-16T06:49:52.092Z,1008.84
2019-01-16T06:50:52.077Z,1008.83
2019-01-16T06:51:52.050Z,1008.82
2019-01-16T06:52:52.043Z,1008.85
2019-01-16T06:53:52.027Z,1008.78
2019-01-16T06:54:52.036Z,1008.90
2019-01-16T06:55:52.042Z,1008.81
2019-01-16T06:56:51.995Z,1008.80
2019-01-16T06:57:51.989Z,1008.89
2019-01-16T06:58:51.973Z,1008.80
2019-01-16T06:59:51.992Z,1008.89
2019-01-16T07:00:51.954Z,1008.85
2019-01-16T07:01:51.949Z,1008.82
2019-01-16T07:02:51.930Z,1008.90
2019-01-16T07:03:51.922Z,1008.88
2019-01-16T07:04:51.926Z,1008.82
2019-01-16T07:05:51.922Z,1008.80
2019-01-16T07:06:51.887Z,1008.85
2019-01-16T07:07:51.878Z,1008.88
2019-01-16T07:08:51.868Z,1008.79
2019-01-16T07:09:51.864Z,1008.80
2019-01-16T07:10:51.937Z,1008.74
2019-01-16T07:11:51.894Z,1008.80
2019-01-16T07:12:51.829Z,1008.79
2019-01-16T07:13:51.829Z,1008.83
2019-01-16T07:14:51.807Z,1008.78
2019-01-16T07:15:51.813Z,1008.80
2019-01-16T07:16:51.784Z,1008.82
2019-01-16T07:17:51.771Z,1008.84
2019-01-16T07:18:51.767Z,1008.84
2019-01-16T07:19:51.774Z,1008.84
2019-01-16T07:20:51.738Z,1008.81
2019-01-16T07:21:51.729Z,1008.79
2019-01-16T07:22:51.781Z,1008.78
2019-01-16T07:23:51.706Z,1008.77
2019-01-16T07:24:51.725Z,1008.77
2019-01-16T07:25:51.692Z,1008.83
2019-01-16T07:26:51.675Z,1008.87
2019-01-16T07:27:51.665Z,1008.84
2019-01-16T07:28:51.664Z,1008.85
2019-01-16T07:29:51.670Z,1008.86
2019-01-16T07:30:51.636Z,1008.93
2019-01-16T07:31:51.661Z,1008.88
2019-01-16T07:32:51.633Z,1008.83
2019-01-16T07:33:51.611Z,1008.78
2019-01-16T07:34:51.600Z,1008.79
2019-01-16T07:35:51.612Z,1008.81
2019-01-16T07:36:51.574Z,1008.79
2019-01-16T07:37:51.561Z,1008.70
2019-01-16T07:38:51.552Z,1008.71
2019-01-16T07:39:51.538Z,1008.71
2019-01-16T07:40:51.587Z,1008.77
2019-01-16T07:41:51.515Z,1008.73
2019-01-16T07:42:51.535Z,1008.76
2019-01-16T07:43:51.933Z,1008.81
2019-01-16T07:44:51.494Z,1008.78
2019-01-16T07:45:51.516Z,1008.78
2019-01-16T07:46:51.465Z,1008.77
2019-01-16T07:47:51.458Z,1008.78
2019-01-16T07:48:51.449Z,1008.95
2019-01-16T07:49:51.436Z,1008.87
2019-01-16T07:50:51.481Z,1008.93
2019-01-16T07:51:51.419Z,1008.82
2019-01-16T07:52:51.404Z,1008.78
2019-01-16T07:53:51.391Z,1008.92
2019-01-16T07:54:51.401Z,1008.89
2019-01-16T07:55:51.395Z,1008.97
2019-01-16T07:56:51.372Z,1008.92
2019-01-16T07:57:51.351Z,1009.00
2019-01-16T07:58:51.344Z,1008.97
2019-01-16T07:59:51.330Z,1008.99
2019-01-16T08:00:51.319Z,1008.86
2019-01-16T08:01:51.331Z,1008.94
2019-01-16T08:02:51.298Z,1009.00
2019-01-16T08:03:51.288Z,1008.95
2019-01-16T08:04:51.292Z,1008.91
2019-01-16T08:05:51.265Z,1008.99
2019-01-16T08:06:51.300Z,1008.92
2019-01-16T08:07:51.254Z,1008.92
2019-01-16T08:08:51.238Z,1008.96
2019-01-16T08:09:51.275Z,1009.06
2019-01-16T08:10:51.216Z,1009.06
2019-01-16T08:11:51.218Z,1009.05
2019-01-16T08:12:51.220Z,1009.06
2019-01-16T08:13:51.208Z,1009.11
2019-01-16T08:14:51.172Z,1009.11
2019-01-16T08:15:51.164Z,1009.03
2019-01-16T08:16:51.151Z,1009.02
2019-01-16T08:17:51.163Z,1009.05
2019-01-16T08:18:51.131Z,1009.03
2019-01-16T08:19:51.142Z,1009.04
2019-01-16T08:20:51.110Z,1008.94
2019-01-16T08:21:51.102Z,1008.93
2019-01-16T08:22:51.113Z,1008.94
2019-01-16T08:23:51.085Z,1008.95
2019-01-16T08:24:51.070Z,1009.00
2019-01-16T08:25:51.069Z,1008.91
2019-01-16T08:26:51.053Z,1008.89
2019-01-16T08:27:51.063Z,1008.94
2019-01-16T08:28:51.027Z,1009.02
2019-01-16T08:29:51.020Z,1009.03
2019-01-16T08:30:51.029Z,1009.02
2019-01-16T08:31:51.008Z,1009.02
2019-01-16T08:32:51.004Z,1009.01
2019-01-16T08:33:50.983Z,1008.97
2019-01-16T08:34:50.966Z,1009.00
2019-01-16T08:35:50.955Z,1009.08
2019-01-16T08:36:50.952Z,1009.05
2019-01-16T08:37:50.954Z,1009.03
2019-01-16T08:38:50.937Z,1009.10
2019-01-16T08:39:51.014Z,1009.11
2019-01-16T08:40:50.898Z,1009.10
2019-01-16T08:41:50.898Z,1009.09
2019-01-16T08:42:50.915Z,1009.05
2019-01-16T08:43:50.880Z,1009.07
2019-01-16T08:44:50.912Z,1009.09
2019-01-16T08:45:50.848Z,1009.11
2019-01-16T08:46:50.845Z,1008.98
2019-01-16T08:47:50.852Z,1008.97
2019-01-16T08:48:50.847Z,1008.92
2019-01-16T08:49:50.827Z,1008.88
2019-01-16T08:50:50.796Z,1008.97
2019-01-16T08:51:50.787Z,1008.94
2019-01-16T08:52:50.799Z,1008.96
2019-01-16T08:53:50.778Z,1008.94
2019-01-16T08:54:50.788Z,1008.94
2019-01-16T08:55:50.747Z,1008.90
2019-01-16T08:56:50.775Z,1008.96
2019-01-16T08:57:50.763Z,1008.82
2019-01-16T08:58:50.717Z,1008.81
2019-01-16T08:59:50.710Z,1008.86
2019-01-16T09:00:50.700Z,1008.80
2019-01-16T09:01:50.688Z,1008.83
2019-01-16T09:02:50.697Z,1008.83
2019-01-16T09:03:50.674Z,1008.86
2019-01-16T09:04:50.677Z,1008.86
2019-01-16T09:05:50.647Z,1008.87
2019-01-16T09:06:50.629Z,1008.81
2019-01-16T09:07:50.619Z,1008.79
2019-01-16T09:08:50.629Z,1008.78
2019-01-16T09:09:50.633Z,1008.88
2019-01-16T09:10:50.592Z,1008.83
2019-01-16T09:11:50.583Z,1008.80
2019-01-16T09:12:50.584Z,1008.82
2019-01-16T09:13:50.627Z,1008.89
2019-01-16T09:14:50.569Z,1008.86
2019-01-16T09:15:50.540Z,1008.86
2019-01-16T09:16:50.530Z,1008.90
2019-01-16T09:17:50.518Z,1008.94
2019-01-16T09:18:50.526Z,1008.88
2019-01-16T09:19:50.501Z,1008.93
2019-01-16T09:20:50.511Z,1008.90
2019-01-16T09:21:50.486Z,1008.86
2019-01-16T09:22:50.470Z,1008.87
2019-01-16T09:23:50.472Z,1008.91
2019-01-16T09:24:50.458Z,1008.88
2019-01-16T09:25:50.435Z,1008.90
2019-01-16T09:26:50.433Z,1008.92
2019-01-16T09:27:50.410Z,1008.93
2019-01-16T09:28:50.421Z,1008.88
2019-01-16T09:29:50.399Z,1008.86
2019-01-16T09:30:50.410Z,1008.84
2019-01-16T09:31:50.377Z,1008.83
2019-01-16T09:32:50.407Z,1008.83
2019-01-16T09:33:50.390Z,1008.79
2019-01-16T09:34:50.343Z,1008.77
2019-01-16T09:35:50.344Z,1008.85
2019-01-16T09:36:50.332Z,1008.79
2019-01-16T09:37:50.316Z,1008.86
2019-01-16T09:38:50.303Z,1008.85
2019-01-16T09:39:50.310Z,1008.79
2019-01-16T09:40:50.281Z,1008.84
2019-01-16T09:41:50.281Z,1008.79
2019-01-16T09:42:50.257Z,1008.76
2019-01-16T09:43:50.244Z,1008.74
2019-01-16T09:44:50.265Z,1008.68
2019-01-16T09:45:50.228Z,1008.60
2019-01-16T09:46:50.235Z,1008.63
2019-01-16T09:47:50.215Z,1008.62
2019-01-16T09:48:50.194Z,1008.53
2019-01-16T09:49:50.258Z,1008.51
2019-01-16T09:50:50.177Z,1008.49
2019-01-16T09:51:50.177Z,1008.53
2019-01-16T09:52:50.154Z,1008.45
2019-01-16T09:53:50.909Z,1008.49
2019-01-16T09:54:50.164Z,1008.49
2019-01-16T09:55:50.122Z,1008.49
2019-01-16T09:56:50.116Z,1008.44
2019-01-16T09:57:50.097Z,1008.40
2019-01-16T09:58:50.085Z,1008.37
2019-01-16T09:59:50.157Z,1008.35
2019-01-16T10:00:50.067Z,1008.37
2019-01-16T10:01:50.064Z,1008.39
2019-01-16T10:02:50.064Z,1008.32
2019-01-16T10:03:50.039Z,1008.33
2019-01-16T10:04:50.103Z,1008.30
2019-01-16T10:05:50.017Z,1008.28
2019-01-16T10:06:50.007Z,1008.31
2019-01-16T10:07:49.997Z,1008.34
2019-01-16T10:08:50.002Z,1008.32
2019-01-16T10:09:49.980Z,1008.31
2019-01-16T10:10:50.017Z,1008.27
2019-01-16T10:11:49.965Z,1008.26
2019-01-16T10:12:49.946Z,1008.28
2019-01-16T10:13:49.932Z,1008.23
2019-01-16T10:14:49.924Z,1008.21
2019-01-16T10:15:50.005Z,1008.15
2019-01-16T10:16:49.905Z,1008.23
2019-01-16T10:17:49.896Z,1008.25
2019-01-16T10:18:49.880Z,1008.20
2019-01-16T10:19:49.875Z,1008.11
2019-01-16T10:20:55.592Z,1008.19
2019-01-16T10:21:50.848Z,1008.16
2019-01-16T10:22:49.849Z,1008.15
2019-01-16T10:23:49.895Z,1008.17
2019-01-16T10:24:49.823Z,1008.14
2019-01-16T10:25:49.835Z,1008.15
2019-01-16T10:26:49.803Z,1008.13
2019-01-16T10:27:49.812Z,1008.12
2019-01-16T10:28:49.776Z,1008.15
2019-01-16T10:29:49.770Z,1008.10
2019-01-16T10:30:49.756Z,1008.11
2019-01-16T10:31:49.785Z,1008.10
2019-01-16T10:32:49.732Z,1008.16
2019-01-16T10:33:49.735Z,1008.20
2019-01-16T10:34:49.717Z,1008.25
2019-01-16T10:35:49.708Z,1008.25
2019-01-16T10:36:49.716Z,1008.14
2019-01-16T10:37:49.702Z,1008.02
2019-01-16T10:38:49.688Z,1007.97
2019-01-16T10:39:49.672Z,1007.96
2019-01-16T10:40:49.654Z,1008.02
2019-01-16T10:41:49.683Z,1007.95
2019-01-16T10:42:49.632Z,1008.00
2019-01-16T10:43:49.643Z,1007.98
2019-01-16T10:44:49.626Z,1007.95
2019-01-16T10:45:49.623Z,1007.97
2019-01-16T10:46:49.618Z,1007.95
2019-01-16T10:47:49.582Z,1007.92
2019-01-16T10:48:50.051Z,1007.94
2019-01-16T10:49:49.603Z,1007.89
2019-01-16T10:50:49.566Z,1007.87
2019-01-16T10:51:49.574Z,1007.85
2019-01-16T10:52:49.528Z,1007.83
2019-01-16T10:53:49.513Z,1007.79
2019-01-16T10:54:49.509Z,1007.80
2019-01-16T10:55:49.506Z,1007.82
2019-01-16T10:56:49.490Z,1007.77
2019-01-16T10:57:49.496Z,1007.78
2019-01-16T10:58:49.471Z,1007.70
2019-01-16T10:59:49.455Z,1007.78
2019-01-16T11:00:49.456Z,1007.75
2019-01-16T11:01:49.450Z,1007.73
2019-01-16T11:02:49.426Z,1007.68
2019-01-16T11:03:49.421Z,1007.73
2019-01-16T11:04:49.405Z,1007.61
2019-01-16T11:05:49.421Z,1007.62
2019-01-16T11:06:49.412Z,1007.60
2019-01-16T11:07:49.372Z,1007.57
2019-01-16T11:08:49.362Z,1007.55
2019-01-16T11:09:49.364Z,1007.43
2019-01-16T11:10:49.352Z,1007.50
2019-01-16T11:11:49.333Z,1007.47
2019-01-16T11:12:49.343Z,1007.50
2019-01-16T11:13:49.394Z,1007.43
2019-01-16T11:14:49.303Z,1007.46
2019-01-16T11:15:49.285Z,1007.46
2019-01-16T11:16:56.415Z,1007.30
2019-01-16T11:17:50.286Z,1007.36
2019-01-16T11:18:49.257Z,1007.31
2019-01-16T11:19:49.325Z,1007.26
2019-01-16T11:20:49.243Z,1007.27
2019-01-16T11:21:49.228Z,1007.25
2019-01-16T11:22:49.258Z,1007.18
2019-01-16T11:23:49.202Z,1007.14
2019-01-16T11:24:49.207Z,1007.18
2019-01-16T11:25:49.186Z,1007.18
2019-01-16T11:26:49.170Z,1007.10
2019-01-16T11:27:49.192Z,1007.05
2019-01-16T11:28:49.151Z,1007.06
2019-01-16T11:29:49.201Z,1007.02
2019-01-16T11:30:49.156Z,1006.95
2019-01-16T11:31:49.123Z,1007.04
2019-01-16T11:32:49.148Z,1006.93
2019-01-16T11:33:49.129Z,1006.91
2019-01-16T11:34:49.112Z,1006.92
2019-01-16T11:35:49.075Z,1006.92
2019-01-16T11:36:49.088Z,1006.88
2019-01-16T11:37:49.060Z,1006.87
2019-01-16T11:38:49.062Z,1006.82
2019-01-16T11:39:49.037Z,1006.80
2019-01-16T11:40:49.282Z,1006.76
2019-01-16T11:41:49.015Z,1006.78
2019-01-16T11:42:49.011Z,1006.86
2019-01-16T11:43:49.017Z,1006.83
2019-01-16T11:44:49.037Z,1006.84
2019-01-16T11:45:48.976Z,1006.81
2019-01-16T11:46:48.963Z,1006.79
2019-01-16T11:47:49.008Z,1006.83
2019-01-16T11:48:48.957Z,1006.79
2019-01-16T11:49:48.959Z,1006.74
2019-01-16T11:50:48.922Z,1006.77
2019-01-16T11:51:48.913Z,1006.71
2019-01-16T11:52:48.904Z,1006.72
2019-01-16T11:53:48.899Z,1006.74
2019-01-16T11:54:48.897Z,1006.74
2019-01-16T11:55:48.899Z,1006.67
2019-01-16T11:56:48.866Z,1006.72
2019-01-16T11:57:48.850Z,1006.66
2019-01-16T11:58:48.880Z,1006.63
2019-01-16T11:59:48.851Z,1006.61
2019-01-16T12:00:48.822Z,1006.64
2019-01-16T12:01:48.804Z,1006.63
2019-01-16T12:02:48.801Z,1006.61
2019-01-16T12:03:48.811Z,1006.52
2019-01-16T12:04:48.906Z,1006.51
2019-01-16T12:05:48.767Z,1006.51
2019-01-16T12:06:48.751Z,1006.53
2019-01-16T12:07:48.740Z,1006.43
2019-01-16T12:08:48.740Z,1006.38
2019-01-16T12:09:48.747Z,1006.38
2019-01-16T12:10:48.718Z,1006.33
2019-01-16T12:11:48.702Z,1006.35
2019-01-16T12:12:48.693Z,1006.32
2019-01-16T12:13:48.682Z,1006.35
2019-01-16T12:14:48.681Z,1006.36
2019-01-16T12:15:48.677Z,1006.25